Time;durP1;ratioP1;P1;durP2;ratioP2;P2;SDS_P1;SDS_P2;PMS_P1;PMS_P2;Temp;Humidity;BMP_temperature;BMP_pressure;BME280_temperature;BME280_humidity;BME280_pressure;Samples;Min_cycle;Max_cycle;Signal;HPM_P1;HPM_P2
2022/06/13 00:01:22;;;;;;;1.60;1.05;;;18.80;88.60;;;;;;5045220;28;20186;-69
2022/06/13 00:03:48;;;;;;;1.73;1.20;;;18.80;89.20;;;;;;5052465;28;20228;-69
2022/06/13 00:06:17;;;;;;;3.83;1.33;;;18.80;89.40;;;;;;5054538;28;20192;-68
2022/06/13 00:08:43;;;;;;;2.55;1.15;;;18.80;89.70;;;;;;5050422;28;20231;-69
2022/06/13 00:11:11;;;;;;;2.05;1.10;;;18.70;90.00;;;;;;5048966;28;20225;-69
2022/06/13 00:13:41;;;;;;;2.42;1.25;;;18.70;90.10;;;;;;5040740;28;20209;-69
2022/06/13 00:16:09;;;;;;;2.15;1.00;;;18.70;90.30;;;;;;5050583;28;20178;-69
2022/06/13 00:18:37;;;;;;;2.83;1.50;;;18.60;90.40;;;;;;5048329;28;20224;-69
2022/06/13 00:21:04;;;;;;;3.75;1.42;;;18.60;90.60;;;;;;5085452;28;20327;-69
2022/06/13 00:23:29;;;;;;;1.98;1.13;;;18.60;91.00;;;;;;5053673;28;20184;-69
2022/06/13 00:25:58;;;;;;;2.10;1.48;;;18.50;90.70;;;;;;5041066;28;20194;-68
2022/06/13 00:28:26;;;;;;;3.17;1.25;;;18.50;91.00;;;;;;5050938;28;20219;-69
2022/06/13 00:30:51;;;;;;;1.88;1.10;;;18.40;91.00;;;;;;5054341;28;20219;-69
2022/06/13 00:33:17;;;;;;;2.80;1.30;;;18.40;91.10;;;;;;5038932;28;20186;-69
2022/06/13 00:35:45;;;;;;;1.90;1.20;;;18.30;91.10;;;;;;5051331;28;20177;-69
2022/06/13 00:38:12;;;;;;;3.05;1.27;;;18.30;91.30;;;;;;5050233;28;20551;-69
2022/06/13 00:40:38;;;;;;;4.00;1.58;;;18.20;91.40;;;;;;5054121;28;20177;-69
2022/06/13 00:43:06;;;;;;;3.38;1.60;;;18.20;91.60;;;;;;5050887;28;20186;-68
2022/06/13 00:45:34;;;;;;;2.78;1.40;;;18.10;91.70;;;;;;5041874;28;20275;-69
2022/06/13 00:48:00;;;;;;;3.35;1.52;;;18.10;91.90;;;;;;5053647;28;20177;-69
2022/06/13 00:50:34;;;;;;;3.03;1.52;;;18.10;92.00;;;;;;5048576;28;20193;-69
2022/06/13 00:53:25;;;;;;;4.00;1.55;;;18.00;92.20;;;;;;5050063;28;20174;-70
2022/06/13 00:56:05;;;;;;;2.08;1.08;;;18.00;92.30;;;;;;5035670;28;20272;-69
2022/06/13 00:58:37;;;;;;;2.78;1.33;;;18.00;92.70;;;;;;5043251;28;20197;-69
2022/06/13 01:01:04;;;;;;;3.47;1.20;;;18.00;92.70;;;;;;5081097;28;20174;-69
2022/06/13 01:03:32;;;;;;;3.40;1.30;;;17.90;92.70;;;;;;5054168;28;20187;-69
2022/06/13 01:06:01;;;;;;;3.13;1.42;;;17.90;93.20;;;;;;5053417;28;20200;-69
2022/06/13 01:08:29;;;;;;;2.03;1.20;;;17.80;93.30;;;;;;5043506;28;20237;-69
2022/06/13 01:11:16;;;;;;;2.50;1.27;;;17.80;93.00;;;;;;5053858;28;20201;-69
2022/06/13 01:16:40;;;;;;;2.95;1.10;;;17.60;93.30;;;;;;5314430;22;20233;-69
2022/06/13 01:19:31;;;;;;;3.75;1.20;;;17.50;93.70;;;;;;5037411;28;20206;-69
2022/06/13 01:22:18;;;;;;;2.08;1.27;;;17.40;93.70;;;;;;5037785;28;20174;-69
2022/06/13 01:25:11;;;;;;;2.13;1.20;;;17.40;94.00;;;;;;5034548;28;20213;-69
2022/06/13 01:28:11;;;;;;;3.03;1.58;;;17.30;94.10;;;;;;5031341;28;20170;-69
2022/06/13 01:31:12;;;;;;;2.67;1.50;;;17.20;94.40;;;;;;5030232;28;20374;-69
2022/06/13 01:33:58;;;;;;;4.63;1.30;;;17.10;94.70;;;;;;5035949;28;20243;-69
2022/06/13 01:36:49;;;;;;;3.58;1.42;;;17.10;94.90;;;;;;5035231;28;20177;-69
2022/06/13 01:39:28;;;;;;;4.55;1.55;;;17.00;95.00;;;;;;5027065;28;20257;-69
2022/06/13 01:41:57;;;;;;;2.92;1.23;;;16.90;95.20;;;;;;5029296;28;20269;-69
2022/06/13 01:44:28;;;;;;;2.95;1.50;;;16.90;95.10;;;;;;5030139;28;20182;-69
2022/06/13 01:47:19;;;;;;;4.47;1.35;;;16.80;95.40;;;;;;5024931;28;20205;-69
2022/06/13 01:50:07;;;;;;;3.22;1.50;;;16.80;96.10;;;;;;5032659;28;20166;-68
2022/06/13 01:52:33;;;;;;;2.60;1.45;;;16.70;96.40;;;;;;5051071;28;20205;-69
2022/06/13 01:55:12;;;;;;;2.85;1.35;;;16.70;96.10;;;;;;5036289;28;20256;-69
2022/06/13 01:57:53;;;;;;;3.75;1.67;;;16.60;96.60;;;;;;5031233;28;20186;-69
2022/06/13 02:00:27;;;;;;;3.85;1.50;;;16.60;96.80;;;;;;5041163;28;20197;-70
2022/06/13 02:03:14;;;;;;;2.75;1.50;;;16.50;97.10;;;;;;5031954;28;20192;-69
2022/06/13 02:06:01;;;;;;;4.32;1.50;;;16.50;97.20;;;;;;5026911;28;20230;-69
2022/06/13 02:08:43;;;;;;;3.20;1.40;;;16.40;97.40;;;;;;5027245;28;20194;-69
2022/06/13 02:11:31;;;;;;;2.50;1.30;;;16.30;97.80;;;;;;5037734;28;20188;-69
2022/06/13 02:14:06;;;;;;;3.70;1.60;;;16.30;98.30;;;;;;5027569;28;20255;-69
2022/06/13 02:16:52;;;;;;;3.20;1.40;;;16.20;98.30;;;;;;5033819;28;20211;-70
2022/06/13 02:19:32;;;;;;;2.30;1.30;;;16.20;98.30;;;;;;5028602;28;20175;-69
2022/06/13 02:22:10;;;;;;;2.65;1.40;;;16.10;98.60;;;;;;5036795;28;20208;-69
2022/06/13 02:24:38;;;;;;;2.92;1.20;;;16.10;99.30;;;;;;5036285;28;20259;-69
2022/06/13 02:27:09;;;;;;;3.58;1.50;;;16.00;98.80;;;;;;5027930;28;20225;-70
2022/06/13 02:29:47;;;;;;;2.20;1.35;;;16.00;99.10;;;;;;5021436;28;20190;-69
2022/06/13 02:32:18;;;;;;;3.13;1.80;;;16.00;99.60;;;;;;5025979;28;20224;-70
2022/06/13 02:34:54;;;;;;;5.03;1.67;;;16.00;99.50;;;;;;5029349;28;20206;-69
2022/06/13 02:38:01;;;;;;;2.50;1.42;;;16.00;99.90;;;;;;5027647;28;20175;-70
2022/06/13 02:40:36;;;;;;;2.38;1.27;;;15.90;99.90;;;;;;5030535;28;20225;-70
2022/06/13 02:43:12;;;;;;;3.17;1.50;;;15.90;99.90;;;;;;5036421;28;20267;-69
2022/06/13 02:45:45;;;;;;;2.60;1.50;;;15.90;99.90;;;;;;5026515;28;20268;-70
2022/06/13 02:48:20;;;;;;;3.47;1.52;;;15.80;99.90;;;;;;5036717;28;20170;-70
2022/06/13 02:50:57;;;;;;;4.28;1.70;;;15.80;99.90;;;;;;5019473;28;20178;-69
2022/06/13 02:53:38;;;;;;;4.20;1.70;;;15.80;99.90;;;;;;5032754;28;20260;-70
2022/06/13 02:56:12;;;;;;;2.75;1.55;;;15.80;99.90;;;;;;5038114;28;20197;-70
2022/06/13 02:59:01;;;;;;;3.42;1.52;;;15.70;99.90;;;;;;5032307;28;20266;-69
2022/06/13 03:01:37;;;;;;;2.85;1.45;;;15.70;99.90;;;;;;5042367;28;20189;-69
2022/06/13 03:04:06;;;;;;;3.10;1.48;;;15.70;99.90;;;;;;5051623;28;20201;-69
2022/06/13 03:06:50;;;;;;;4.05;1.80;;;15.70;99.90;;;;;;5036078;28;20174;-70
2022/06/13 03:09:46;;;;;;;3.38;1.88;;;15.70;99.90;;;;;;5050950;28;20269;-68
2022/06/13 03:12:19;;;;;;;2.20;1.45;;;15.70;99.90;;;;;;5033833;28;20190;-70
2022/06/13 03:14:59;;;;;;;4.68;1.70;;;15.70;99.90;;;;;;5019422;28;20196;-69
2022/06/13 03:17:49;;;;;;;3.75;1.73;;;15.60;99.90;;;;;;5033852;28;20181;-70
2022/06/13 03:20:18;;;;;;;3.40;1.70;;;15.60;99.90;;;;;;5029058;28;20189;-68
2022/06/13 03:22:58;;;;;;;2.63;1.40;;;15.60;99.90;;;;;;5027502;28;20185;-69
2022/06/13 03:25:32;;;;;;;3.03;1.67;;;15.60;99.90;;;;;;5035565;28;20252;-70
2022/06/13 03:28:09;;;;;;;3.92;1.90;;;15.50;99.90;;;;;;5047814;28;20232;-70
2022/06/13 03:30:57;;;;;;;5.75;1.90;;;15.50;99.90;;;;;;5035196;28;20173;-70
2022/06/13 03:33:42;;;;;;;3.25;1.70;;;15.50;99.90;;;;;;5033534;28;20177;-69
2022/06/13 03:36:09;;;;;;;3.25;1.60;;;15.40;99.90;;;;;;5028805;28;20183;-69
2022/06/13 03:38:44;;;;;;;3.72;1.90;;;15.40;99.90;;;;;;5022403;28;20202;-69
2022/06/13 03:41:16;;;;;;;4.93;1.70;;;15.30;99.90;;;;;;5019450;28;20174;-70
2022/06/13 03:43:51;;;;;;;3.88;1.75;;;15.30;99.90;;;;;;5023412;28;20174;-69
2022/06/13 03:46:55;;;;;;;3.55;1.75;;;15.30;99.90;;;;;;5034305;28;20213;-69
2022/06/13 03:49:42;;;;;;;4.97;1.88;;;15.30;99.90;;;;;;5040548;28;20182;-69
2022/06/13 03:52:16;;;;;;;4.47;1.80;;;15.30;99.90;;;;;;5030135;28;20231;-69
2022/06/13 03:54:58;;;;;;;4.18;2.00;;;15.30;99.90;;;;;;5032763;28;20271;-68
2022/06/13 03:57:34;;;;;;;4.00;2.03;;;15.30;99.90;;;;;;5030071;28;20177;-69
2022/06/13 04:00:08;;;;;;;3.55;1.75;;;15.20;99.90;;;;;;5031590;28;20207;-68
2022/06/13 04:02:37;;;;;;;4.57;1.90;;;15.20;99.90;;;;;;5034413;28;20248;-70
2022/06/13 04:05:03;;;;;;;5.32;1.83;;;15.20;99.90;;;;;;5030049;28;20245;-69
2022/06/13 04:07:36;;;;;;;3.15;1.88;;;15.20;99.90;;;;;;5040239;28;20255;-70
2022/06/13 04:10:15;;;;;;;3.28;1.65;;;15.20;99.90;;;;;;5024506;28;20344;-69
2022/06/13 04:12:46;;;;;;;5.80;2.00;;;15.20;99.90;;;;;;5032385;28;20190;-69
2022/06/13 04:15:20;;;;;;;5.35;1.77;;;15.20;99.90;;;;;;5034203;28;20232;-69
2022/06/13 04:18:11;;;;;;;2.83;1.77;;;15.20;99.90;;;;;;5035192;28;20193;-69
2022/06/13 04:21:06;;;;;;;2.83;1.60;;;15.20;99.90;;;;;;5047352;28;20184;-69
2022/06/13 04:23:54;;;;;;;3.70;1.52;;;15.20;99.90;;;;;;5031669;28;20182;-68
2022/06/13 04:26:28;;;;;;;3.30;1.55;;;15.20;99.90;;;;;;5030466;28;20267;-69
2022/06/13 04:29:18;;;;;;;3.83;1.65;;;15.20;99.90;;;;;;5033680;28;20205;-69
2022/06/13 04:31:48;;;;;;;4.65;1.80;;;15.20;99.90;;;;;;5033025;28;20192;-68
2022/06/13 04:34:27;;;;;;;3.78;1.85;;;15.30;99.90;;;;;;5039156;28;20240;-68
2022/06/13 04:36:56;;;;;;;3.67;1.70;;;15.30;99.90;;;;;;5035054;28;20189;-70
2022/06/13 04:39:28;;;;;;;3.25;1.80;;;15.30;99.90;;;;;;5034862;28;20192;-68
2022/06/13 04:41:57;;;;;;;5.50;1.90;;;15.30;99.90;;;;;;5041380;28;20181;-68
2022/06/13 04:44:28;;;;;;;3.63;1.65;;;15.40;99.90;;;;;;5040834;28;20201;-68
2022/06/13 04:46:58;;;;;;;3.40;1.70;;;15.40;99.90;;;;;;5036678;28;20267;-68
2022/06/13 04:49:44;;;;;;;3.83;2.00;;;15.40;99.90;;;;;;5042607;28;20178;-68
2022/06/13 04:52:15;;;;;;;4.70;2.10;;;15.40;99.90;;;;;;5036729;28;20224;-68
2022/06/13 04:54:55;;;;;;;4.00;1.88;;;15.40;99.90;;;;;;5049785;28;20173;-68
2022/06/13 04:57:24;;;;;;;4.20;2.10;;;15.50;99.90;;;;;;5037740;28;20202;-69
2022/06/13 04:59:51;;;;;;;3.85;1.77;;;15.50;99.90;;;;;;5039500;28;20210;-68
2022/06/13 05:02:25;;;;;;;4.78;1.88;;;15.50;99.90;;;;;;5037971;28;20261;-68
2022/06/13 05:04:51;;;;;;;5.45;1.88;;;15.60;99.90;;;;;;5041247;28;20202;-68
2022/06/13 05:07:24;;;;;;;3.40;1.60;;;15.60;99.90;;;;;;5042071;28;20169;-68
2022/06/13 05:10:01;;;;;;;5.13;1.80;;;15.70;99.90;;;;;;5042379;28;20190;-68
2022/06/13 05:12:37;;;;;;;4.38;2.00;;;15.80;99.90;;;;;;5041677;28;20257;-67
2022/06/13 05:15:07;;;;;;;4.13;1.88;;;15.90;99.90;;;;;;5041098;28;20185;-70
2022/06/13 05:17:43;;;;;;;6.10;2.10;;;15.90;99.90;;;;;;5043233;28;20407;-70
2022/06/13 05:20:14;;;;;;;4.60;1.85;;;16.00;99.90;;;;;;5052693;28;20212;-71
2022/06/13 05:22:40;;;;;;;4.00;2.15;;;16.10;99.90;;;;;;5037155;28;20204;-70
2022/06/13 05:25:36;;;;;;;4.57;1.92;;;16.10;99.90;;;;;;5037157;28;20197;-71
2022/06/13 05:28:02;;;;;;;3.25;1.88;;;16.20;99.90;;;;;;5025650;28;20174;-70
2022/06/13 05:30:27;;;;;;;4.60;1.60;;;16.20;99.90;;;;;;5035952;28;20186;-70
2022/06/13 05:32:57;;;;;;;4.13;1.70;;;16.30;99.90;;;;;;5040867;28;20182;-68
2022/06/13 05:35:27;;;;;;;4.32;1.70;;;16.30;99.90;;;;;;5030987;28;20197;-69
2022/06/13 05:37:57;;;;;;;3.17;1.88;;;16.30;99.90;;;;;;5038126;28;20178;-68
2022/06/13 05:40:23;;;;;;;3.55;1.70;;;16.40;99.90;;;;;;5033073;28;20205;-69
2022/06/13 05:42:52;;;;;;;3.83;1.40;;;16.40;99.90;;;;;;5033505;28;20511;-68
2022/06/13 05:45:22;;;;;;;4.43;1.92;;;16.50;99.90;;;;;;5045733;28;20254;-68
2022/06/13 05:47:53;;;;;;;3.70;1.80;;;16.50;99.90;;;;;;5044023;28;20185;-69
2022/06/13 05:50:29;;;;;;;3.97;1.80;;;16.50;99.90;;;;;;5030170;28;20202;-68
2022/06/13 05:52:57;;;;;;;4.93;1.70;;;16.60;99.90;;;;;;5039251;28;20261;-69
2022/06/13 05:55:23;;;;;;;5.55;2.22;;;16.60;99.90;;;;;;5033119;28;20213;-68
2022/06/13 05:57:49;;;;;;;3.47;1.67;;;16.70;99.90;;;;;;5036891;28;20213;-69
2022/06/13 06:00:21;;;;;;;6.22;2.22;;;16.70;99.90;;;;;;5036104;28;20334;-70
2022/06/13 06:02:46;;;;;;;4.07;1.80;;;16.80;99.90;;;;;;5037632;28;20232;-69
2022/06/13 06:05:14;;;;;;;3.85;1.70;;;16.90;99.90;;;;;;5037399;28;20206;-69
2022/06/13 06:07:43;;;;;;;4.68;1.83;;;16.90;99.90;;;;;;5039318;28;20178;-69
2022/06/13 06:10:18;;;;;;;4.90;1.95;;;17.00;99.90;;;;;;5033427;28;20277;-70
2022/06/13 06:12:46;;;;;;;4.38;1.98;;;17.10;99.90;;;;;;5038123;28;20185;-69
2022/06/13 06:15:12;;;;;;;5.38;2.22;;;17.10;99.90;;;;;;5036366;28;20243;-71
2022/06/13 06:17:40;;;;;;;4.57;1.95;;;17.20;99.90;;;;;;5040957;28;20186;-70
2022/06/13 06:20:06;;;;;;;5.20;2.15;;;17.20;99.90;;;;;;5041074;28;20213;-70
2022/06/13 06:22:32;;;;;;;6.35;2.03;;;17.30;99.90;;;;;;5035029;28;20206;-71
2022/06/13 06:24:58;;;;;;;2.88;1.85;;;17.30;99.90;;;;;;5035481;28;20236;-70
2022/06/13 06:27:23;;;;;;;6.80;2.30;;;17.40;99.90;;;;;;5054091;28;20177;-70
2022/06/13 06:29:49;;;;;;;5.55;1.90;;;17.40;99.90;;;;;;5040600;28;20178;-70
2022/06/13 06:32:15;;;;;;;5.22;2.13;;;17.50;99.90;;;;;;5035374;28;20180;-70
2022/06/13 06:34:42;;;;;;;4.70;2.10;;;17.50;99.90;;;;;;5033818;28;20265;-77
2022/06/13 06:37:08;;;;;;;5.65;2.30;;;17.50;99.90;;;;;;5035195;28;20174;-82
2022/06/13 06:39:34;;;;;;;5.18;2.10;;;17.60;99.90;;;;;;5032834;28;20194;-74
2022/06/13 06:42:01;;;;;;;5.10;2.28;;;17.60;99.90;;;;;;5035430;28;20205;-84
2022/06/13 06:44:27;;;;;;;5.07;2.00;;;17.60;99.90;;;;;;5044601;28;20181;-83
2022/06/13 06:46:53;;;;;;;3.83;1.80;;;17.70;99.90;;;;;;5051095;28;20607;-79
2022/06/13 06:49:18;;;;;;;4.75;1.80;;;17.70;99.90;;;;;;5029989;28;20348;-82
2022/06/13 06:51:46;;;;;;;3.63;1.77;;;17.80;99.90;;;;;;5038460;28;20209;-84
2022/06/13 06:59:56;;;;;;;5.45;1.92;;;17.90;99.90;;;;;;5029507;28;20213;-86
2022/06/13 07:02:23;;;;;;;3.78;1.77;;;18.00;99.90;;;;;;5032686;28;20206;-85
2022/06/13 07:05:03;;;;;;;2.10;1.50;;;18.00;99.90;;;;;;5037240;28;20217;-83
2022/06/13 07:07:28;;;;;;;5.35;1.90;;;18.10;99.90;;;;;;5038999;28;20212;-78
2022/06/13 07:09:54;;;;;;;4.55;1.77;;;18.20;99.90;;;;;;5034105;28;20198;-81
2022/06/13 07:12:27;;;;;;;5.57;1.98;;;18.40;99.90;;;;;;5035258;28;20174;-81
2022/06/13 07:14:53;;;;;;;4.00;1.60;;;18.50;99.90;;;;;;5025108;28;20198;-82
2022/06/13 07:17:22;;;;;;;6.22;1.90;;;18.60;99.90;;;;;;5027654;28;20178;-78
2022/06/13 07:19:48;;;;;;;5.90;2.20;;;18.80;99.90;;;;;;5034964;28;20201;-85
2022/06/13 07:22:17;;;;;;;10.63;2.03;;;18.90;99.90;;;;;;5035786;28;20227;-85
2022/06/13 07:24:44;;;;;;;4.35;2.10;;;19.00;99.90;;;;;;5034527;28;20205;-83
2022/06/13 07:27:13;;;;;;;7.47;2.28;;;19.10;99.90;;;;;;5025618;28;20495;-85
2022/06/13 07:29:40;;;;;;;3.53;2.08;;;19.20;99.90;;;;;;5034741;28;20170;-86
2022/06/13 07:32:07;;;;;;;5.43;2.20;;;19.20;99.90;;;;;;5024895;28;20199;-85
2022/06/13 07:34:38;;;;;;;6.10;2.28;;;19.20;99.90;;;;;;5037487;28;20260;-82
2022/06/13 07:37:11;;;;;;;4.43;2.25;;;19.30;99.90;;;;;;5034875;28;20188;-85
2022/06/13 07:39:39;;;;;;;6.68;2.60;;;19.30;99.90;;;;;;5037310;28;20368;-84
2022/06/13 07:42:07;;;;;;;6.13;2.10;;;19.30;99.90;;;;;;5047541;28;20169;-82
2022/06/13 07:44:38;;;;;;;3.95;2.30;;;19.30;99.90;;;;;;5025872;28;20202;-82
2022/06/13 07:47:07;;;;;;;4.82;1.98;;;19.30;99.90;;;;;;5034412;28;20177;-85
2022/06/13 07:49:38;;;;;;;4.25;2.05;;;19.30;99.90;;;;;;5034668;28;20197;-83
2022/06/13 07:52:04;;;;;;;7.15;2.40;;;19.40;99.90;;;;;;5032891;28;20185;-79
2022/06/13 07:54:29;;;;;;;3.33;1.88;;;19.40;99.90;;;;;;5032010;28;20425;-82
2022/06/13 07:56:57;;;;;;;4.20;1.92;;;19.40;99.90;;;;;;5029827;28;20261;-80
2022/06/13 07:59:27;;;;;;;3.97;2.28;;;19.40;99.90;;;;;;5034097;28;20166;-82
2022/06/13 08:01:55;;;;;;;4.10;2.13;;;19.40;99.90;;;;;;5035090;28;20194;-85
2022/06/13 08:04:23;;;;;;;5.05;1.98;;;19.40;99.90;;;;;;5044964;28;20181;-84
2022/06/13 08:06:48;;;;;;;5.60;2.10;;;19.50;99.90;;;;;;5035417;28;20178;-83
2022/06/13 08:09:16;;;;;;;3.65;1.75;;;19.60;99.90;;;;;;5019341;28;20185;-84
2022/06/13 08:11:50;;;;;;;3.20;1.50;;;19.60;99.90;;;;;;5041199;28;20216;-82
2022/06/13 08:14:16;;;;;;;4.40;2.03;;;19.70;99.90;;;;;;5034751;28;20281;-86
2022/06/13 08:16:44;;;;;;;4.65;2.08;;;19.70;99.90;;;;;;5037355;28;20194;-83
2022/06/13 08:19:12;;;;;;;6.88;2.55;;;19.80;99.90;;;;;;5034284;28;20292;-85
2022/06/13 08:21:38;;;;;;;4.70;2.20;;;19.80;99.90;;;;;;5034925;28;20180;-85
2022/06/13 08:24:05;;;;;;;7.18;2.65;;;19.70;99.90;;;;;;5032126;28;20188;-82
2022/06/13 08:26:31;;;;;;;8.23;3.55;;;19.70;99.90;;;;;;5033492;28;20213;-82
2022/06/13 08:28:56;;;;;;;5.82;2.55;;;19.70;99.90;;;;;;5020503;28;20200;-81
2022/06/13 08:31:23;;;;;;;5.65;2.67;;;19.70;99.90;;;;;;5044235;28;20194;-84
2022/06/13 08:33:49;;;;;;;8.05;3.25;;;19.70;99.90;;;;;;5037756;28;20228;-84
2022/06/13 08:36:16;;;;;;;7.90;3.08;;;19.60;99.90;;;;;;5027930;28;20289;-83
2022/06/13 08:38:41;;;;;;;7.15;3.78;;;19.70;99.90;;;;;;5034354;28;20189;-82
2022/06/13 08:41:10;;;;;;;7.25;3.45;;;19.60;99.90;;;;;;5029062;28;20179;-84
2022/06/13 08:44:19;;;;;;;6.75;3.20;;;19.60;99.90;;;;;;5030727;28;20181;-84
2022/06/13 08:47:02;;;;;;;8.98;4.05;;;19.70;99.90;;;;;;5034102;28;20225;-87
2022/06/13 08:49:43;;;;;;;10.82;4.60;;;19.70;99.90;;;;;;5018680;28;20209;-83
2022/06/13 08:52:14;;;;;;;7.75;4.25;;;19.70;99.90;;;;;;5060677;28;20238;-84
2022/06/13 08:54:48;;;;;;;8.45;4.72;;;19.80;99.90;;;;;;5030717;28;20206;-80
2022/06/13 08:57:14;;;;;;;7.93;3.80;;;19.90;99.90;;;;;;5033570;28;20186;-81
2022/06/13 08:59:48;;;;;;;8.27;3.72;;;20.00;99.90;;;;;;5043861;28;20189;-83
2022/06/13 09:02:17;;;;;;;14.27;4.75;;;20.20;99.90;;;;;;5051991;28;20168;-84
2022/06/13 09:04:59;;;;;;;12.23;4.47;;;20.30;99.90;;;;;;5025964;28;20197;-83
2022/06/13 09:07:42;;;;;;;10.07;4.78;;;20.30;99.90;;;;;;5043055;28;20182;-85
2022/06/13 09:10:31;;;;;;;9.77;3.67;;;20.40;99.90;;;;;;5023634;28;20177;-85
2022/06/13 09:13:38;;;;;;;7.80;3.92;;;20.50;99.90;;;;;;5043591;28;20202;-85
2022/06/13 09:16:20;;;;;;;9.32;3.88;;;20.60;99.90;;;;;;5025122;28;20189;-85
2022/06/13 09:19:18;;;;;;;8.13;4.28;;;20.60;99.90;;;;;;5033326;28;20220;-84
2022/06/13 09:22:03;;;;;;;8.32;4.28;;;20.60;99.90;;;;;;5041413;28;20217;-85
2022/06/13 09:25:08;;;;;;;6.88;3.90;;;20.70;99.90;;;;;;5045383;28;20255;-83
2022/06/13 09:27:48;;;;;;;8.07;3.70;;;20.70;99.90;;;;;;5033055;28;20186;-84
2022/06/13 09:30:26;;;;;;;8.65;3.85;;;20.80;99.90;;;;;;5028724;28;20915;-86
2022/06/13 09:32:58;;;;;;;11.13;4.57;;;20.90;99.90;;;;;;5029464;28;20194;-84
2022/06/13 09:35:40;;;;;;;6.68;3.58;;;20.90;99.90;;;;;;5022674;28;20201;-82
2022/06/13 09:38:24;;;;;;;9.85;4.15;;;21.00;99.90;;;;;;5037310;28;20177;-87
2022/06/13 09:41:02;;;;;;;9.40;3.63;;;21.00;99.90;;;;;;5033200;28;20178;-81
2022/06/13 09:43:58;;;;;;;5.13;3.50;;;21.00;99.90;;;;;;5025760;28;20259;-78
2022/06/13 09:46:45;;;;;;;6.63;3.03;;;21.00;99.90;;;;;;5024012;28;20205;-82
2022/06/13 09:49:28;;;;;;;7.15;3.78;;;21.10;99.90;;;;;;5035200;28;20167;-84
2022/06/13 09:52:18;;;;;;;9.63;3.90;;;21.10;99.90;;;;;;5037022;28;20165;-80
2022/06/13 09:55:05;;;;;;;11.45;3.65;;;21.20;99.90;;;;;;5036353;28;20227;-82
2022/06/13 09:57:35;;;;;;;10.60;4.07;;;21.20;99.90;;;;;;5024803;28;20403;-84
2022/06/13 10:00:17;;;;;;;6.35;3.25;;;21.20;99.90;;;;;;5046225;28;20202;-83
2022/06/13 10:02:59;;;;;;;6.38;3.13;;;21.20;99.90;;;;;;5036391;28;20190;-84
2022/06/13 10:05:38;;;;;;;10.27;3.67;;;21.20;99.90;;;;;;5052833;28;20217;-82
2022/06/13 10:08:25;;;;;;;7.57;3.22;;;21.20;99.90;;;;;;5017034;28;20226;-80
2022/06/13 10:11:22;;;;;;;8.23;2.78;;;21.30;99.90;;;;;;5021582;28;20198;-81
2022/06/13 10:13:53;;;;;;;8.68;2.72;;;21.40;99.90;;;;;;5040214;28;20184;-83
2022/06/13 10:16:34;;;;;;;6.57;2.83;;;21.40;99.90;;;;;;5055977;28;20212;-79
2022/06/13 10:19:24;;;;;;;5.28;2.50;;;21.40;99.90;;;;;;5037604;28;20178;-84
2022/06/13 10:22:13;;;;;;;5.63;2.63;;;21.50;99.90;;;;;;5032868;28;20588;-76
2022/06/13 10:25:09;;;;;;;5.65;2.60;;;21.70;99.90;;;;;;5033364;28;20174;-83
2022/06/13 10:27:53;;;;;;;6.95;2.53;;;21.80;99.90;;;;;;5046574;28;20261;-81
2022/06/13 10:30:58;;;;;;;4.63;2.15;;;22.10;99.90;;;;;;5047493;28;20183;-84
2022/06/13 10:33:54;;;;;;;6.22;2.45;;;22.20;99.90;;;;;;5035861;28;20177;-85
2022/06/13 10:36:42;;;;;;;5.90;2.45;;;22.40;99.90;;;;;;5039745;28;20186;-82
2022/06/13 10:39:12;;;;;;;5.57;2.40;;;22.50;99.50;;;;;;5035466;28;20182;-83
2022/06/13 10:41:43;;;;;;;4.57;2.17;;;22.60;99.90;;;;;;5040410;28;20185;-85
2022/06/13 10:44:14;;;;;;;5.57;2.25;;;22.70;99.90;;;;;;5029873;28;20178;-86
2022/06/13 10:46:49;;;;;;;5.88;2.40;;;22.80;99.90;;;;;;5035345;28;20213;-86
2022/06/13 10:49:22;;;;;;;4.47;2.22;;;22.90;99.90;;;;;;5036746;28;20176;-81
2022/06/13 10:51:48;;;;;;;7.15;2.38;;;22.90;99.10;;;;;;5036718;28;20190;-81
2022/06/13 10:54:21;;;;;;;6.43;2.10;;;22.90;99.50;;;;;;5047097;28;20429;-85
2022/06/13 10:56:53;;;;;;;5.10;2.30;;;22.80;98.40;;;;;;5016533;28;20174;-85
2022/06/13 10:59:39;;;;;;;3.97;1.80;;;22.70;97.10;;;;;;5023671;28;20479;-84
2022/06/13 11:02:24;;;;;;;4.00;2.05;;;22.60;94.80;;;;;;5035844;28;20186;-81
2022/06/13 11:05:13;;;;;;;7.28;2.60;;;22.50;96.30;;;;;;5035553;28;20197;-87
2022/06/13 11:07:51;;;;;;;6.25;2.30;;;22.50;95.70;;;;;;5042913;28;20170;-81
2022/06/13 11:10:40;;;;;;;4.30;1.80;;;22.50;97.00;;;;;;5021048;28;20251;-83
2022/06/13 11:13:14;;;;;;;4.95;1.98;;;22.60;96.80;;;;;;5035265;28;20158;-84
2022/06/13 11:24:19;;;;;;;7.70;2.38;;;23.10;96.70;;;;;;5031098;28;20189;-80
2022/06/13 11:29:38;;;;;;;6.28;2.60;;;23.10;96.80;;;;;;5033464;28;20239;-79
2022/06/13 11:32:18;;;;;;;6.63;2.15;;;23.00;97.00;;;;;;5050319;28;20219;-81
2022/06/13 11:34:44;;;;;;;6.18;2.03;;;23.00;94.90;;;;;;5051767;28;20173;-86
2022/06/13 11:37:14;;;;;;;5.95;1.92;;;22.90;95.40;;;;;;5042397;28;20184;-81
2022/06/13 11:39:43;;;;;;;4.55;1.80;;;22.90;94.50;;;;;;5034297;28;20194;-79
2022/06/13 11:42:33;;;;;;;5.10;2.15;;;22.80;94.20;;;;;;5032708;28;20293;-84
2022/06/13 11:45:26;;;;;;;5.55;2.05;;;22.70;92.30;;;;;;5033602;28;20205;-81
2022/06/13 11:47:54;;;;;;;4.20;2.00;;;22.60;94.80;;;;;;5034460;28;20178;-81
2022/06/13 11:50:29;;;;;;;4.93;2.13;;;22.60;95.60;;;;;;5033866;28;20198;-81
2022/06/13 11:55:57;;;;;;;4.97;2.13;;;23.00;96.20;;;;;;5035556;28;20258;-85
2022/06/13 11:58:27;;;;;;;4.85;1.98;;;23.30;95.60;;;;;;5030516;28;20180;-80
2022/06/13 12:01:14;;;;;;;4.20;1.60;;;23.50;96.00;;;;;;5036012;28;20414;-84
2022/06/13 12:03:49;;;;;;;6.68;1.80;;;23.70;94.40;;;;;;5031210;28;20178;-82
2022/06/13 12:06:18;;;;;;;4.95;1.83;;;23.80;93.50;;;;;;5023112;28;20599;-78
2022/06/13 12:08:52;;;;;;;5.30;1.75;;;23.90;93.90;;;;;;5033974;28;20429;-81
2022/06/13 12:11:17;;;;;;;5.70;1.90;;;24.00;93.20;;;;;;5023928;28;20191;-82
2022/06/13 12:13:48;;;;;;;4.80;1.80;;;24.10;92.10;;;;;;5014721;28;20302;-84
2022/06/13 12:16:32;;;;;;;4.65;2.10;;;24.10;91.50;;;;;;5032245;28;20201;-82
2022/06/13 12:19:23;;;;;;;4.05;1.70;;;24.30;83.10;;;;;;5025857;28;20178;-87
2022/06/13 12:22:01;;;;;;;4.10;1.60;;;24.30;84.90;;;;;;5034096;28;20193;-82
2022/06/13 12:24:55;;;;;;;5.57;1.92;;;24.30;83.30;;;;;;5029766;28;20173;-87
2022/06/13 12:27:27;;;;;;;5.18;2.10;;;24.20;81.30;;;;;;5033434;28;20216;-88
2022/06/13 12:30:02;;;;;;;5.63;1.90;;;24.10;84.10;;;;;;5033453;28;20281;-82
2022/06/13 12:32:38;;;;;;;3.97;1.80;;;24.00;80.30;;;;;;5034304;28;20197;-82
2022/06/13 12:35:34;;;;;;;5.45;1.90;;;23.90;84.50;;;;;;5030750;28;20269;-85
2022/06/13 12:38:18;;;;;;;5.80;1.98;;;23.90;81.00;;;;;;5025253;28;20270;-82
2022/06/13 12:41:04;;;;;;;3.60;1.90;;;23.90;84.50;;;;;;5044044;28;20180;-86
2022/06/13 12:43:54;;;;;;;5.78;2.10;;;23.80;82.70;;;;;;5048239;28;20158;-81
2022/06/13 12:46:42;;;;;;;4.85;1.95;;;23.70;82.60;;;;;;5048061;28;20206;-83
2022/06/13 12:49:26;;;;;;;2.75;1.63;;;23.80;85.40;;;;;;5034267;28;20162;-82
2022/06/13 12:51:58;;;;;;;4.03;1.67;;;24.00;85.60;;;;;;5050383;28;20188;-85
2022/06/13 12:54:42;;;;;;;2.90;1.55;;;24.20;84.40;;;;;;5052168;28;20169;-85
2022/06/13 12:57:18;;;;;;;2.95;1.50;;;24.30;83.90;;;;;;5033947;28;20201;-79
2022/06/13 12:59:46;;;;;;;4.50;1.50;;;24.40;79.70;;;;;;5033856;28;20188;-82
2022/06/13 13:02:24;;;;;;;4.18;1.63;;;24.30;82.30;;;;;;5033861;28;20198;-81
2022/06/13 13:05:02;;;;;;;4.68;1.70;;;24.30;82.80;;;;;;5016817;28;20268;-77
2022/06/13 13:07:46;;;;;;;5.35;1.67;;;24.30;80.40;;;;;;5019169;28;20206;-82
2022/06/13 13:10:39;;;;;;;5.13;1.60;;;24.30;79.00;;;;;;5033780;28;20224;-84
2022/06/13 13:13:20;;;;;;;2.63;1.70;;;24.40;79.10;;;;;;5018661;28;20154;-86
2022/06/13 13:16:08;;;;;;;5.22;1.83;;;24.50;77.90;;;;;;5033358;28;20205;-84
2022/06/13 13:18:45;;;;;;;3.83;1.67;;;24.60;76.00;;;;;;5037724;28;20170;-85
2022/06/13 13:21:23;;;;;;;3.83;1.80;;;24.70;77.60;;;;;;5047376;28;20176;-84
2022/06/13 13:24:06;;;;;;;5.78;1.73;;;24.80;76.90;;;;;;5038050;28;20190;-86
2022/06/13 13:26:47;;;;;;;2.70;1.55;;;24.90;71.80;;;;;;5052774;28;20201;-86
2022/06/13 13:29:40;;;;;;;3.80;1.65;;;25.00;75.50;;;;;;5048766;28;20197;-86
2022/06/13 13:32:34;;;;;;;2.97;1.65;;;25.10;77.30;;;;;;5038647;28;20264;-90
2022/06/13 13:35:24;;;;;;;5.10;1.75;;;25.20;72.20;;;;;;5054229;28;20174;-87
2022/06/13 13:38:07;;;;;;;3.08;1.50;;;25.40;70.40;;;;;;5040124;28;20186;-81
2022/06/13 13:40:33;;;;;;;2.70;1.58;;;25.50;71.10;;;;;;5043326;28;20228;-84
2022/06/13 13:43:32;;;;;;;3.28;1.25;;;25.50;72.90;;;;;;5053224;28;20177;-87
2022/06/13 13:46:10;;;;;;;3.58;1.58;;;25.50;68.20;;;;;;5038656;28;20209;-82
2022/06/13 13:49:14;;;;;;;4.10;1.60;;;25.50;69.80;;;;;;5030037;28;20183;-82
2022/06/13 13:51:55;;;;;;;3.95;1.70;;;25.40;67.20;;;;;;5027018;28;20248;-84
2022/06/13 13:54:36;;;;;;;2.20;1.40;;;25.20;69.90;;;;;;5043017;28;20196;-86